sensor_id;sensor_type;location;lat;lon;timestamp;temperature;humidity
14122;DHT22;7139;48.114;11.442;2023-03-25T00:02:05;9.10;99.90
14122;DHT22;7139;48.114;11.442;2023-03-25T00:04:32;9.10;99.90
14122;DHT22;7139;48.114;11.442;2023-03-25T00:07:00;9.10;99.90
14122;DHT22;7139;48.114;11.442;2023-03-25T00:09:27;9.10;99.90
14122;DHT22;7139;48.114;11.442;2023-03-25T00:11:54;9.00;99.90
14122;DHT22;7139;48.114;11.442;2023-03-25T00:14:20;9.10;99.90
14122;DHT22;7139;48.114;11.442;2023-03-25T00:16:49;9.10;99.90
14122;DHT22;7139;48.114;11.442;2023-03-25T00:19:18;9.10;99.90
14122;DHT22;7139;48.114;11.442;2023-03-25T00:21:46;9.10;99.90
14122;DHT22;7139;48.114;11.442;2023-03-25T00:24:15;9.10;99.90
14122;DHT22;7139;48.114;11.442;2023-03-25T00:26:42;9.20;99.90
14122;DHT22;7139;48.114;11.442;2023-03-25T00:29:11;9.20;99.90
14122;DHT22;7139;48.114;11.442;2023-03-25T00:31:38;9.20;99.90
14122;DHT22;7139;48.114;11.442;2023-03-25T00:34:05;9.20;99.90
14122;DHT22;7139;48.114;11.442;2023-03-25T00:36:33;9.20;99.90
14122;DHT22;7139;48.114;11.442;2023-03-25T00:39:02;9.30;99.90
14122;DHT22;7139;48.114;11.442;2023-03-25T00:41:29;9.30;99.90
14122;DHT22;7139;48.114;11.442;2023-03-25T00:43:57;9.30;99.90
14122;DHT22;7139;48.114;11.442;2023-03-25T00:46:26;9.30;99.90
14122;DHT22;7139;48.114;11.442;2023-03-25T00:48:53;9.30;99.90
14122;DHT22;7139;48.114;11.442;2023-03-25T00:51:21;9.40;99.90
14122;DHT22;7139;48.114;11.442;2023-03-25T00:53:50;9.40;99.90
14122;DHT22;7139;48.114;11.442;2023-03-25T00:56:17;9.40;99.90
14122;DHT22;7139;48.114;11.442;2023-03-25T00:58:44;9.40;99.90
14122;DHT22;7139;48.114;11.442;2023-03-25T01:01:13;9.40;99.90
14122;DHT22;7139;48.114;11.442;2023-03-25T01:03:40;9.40;99.90
14122;DHT22;7139;48.114;11.442;2023-03-25T01:06:10;9.50;99.90
14122;DHT22;7139;48.114;11.442;2023-03-25T01:08:37;9.50;99.80
14122;DHT22;7139;48.114;11.442;2023-03-25T01:11:14;9.50;99.80
14122;DHT22;7139;48.114;11.442;2023-03-25T01:13:42;9.50;99.60
14122;DHT22;7139;48.114;11.442;2023-03-25T01:16:09;9.50;99.60
14122;DHT22;7139;48.114;11.442;2023-03-25T01:18:36;9.60;99.50
14122;DHT22;7139;48.114;11.442;2023-03-25T01:21:03;9.60;99.40
14122;DHT22;7139;48.114;11.442;2023-03-25T01:23:30;9.60;99.40
14122;DHT22;7139;48.114;11.442;2023-03-25T01:25:57;9.60;99.40
14122;DHT22;7139;48.114;11.442;2023-03-25T01:28:26;9.60;99.40
14122;DHT22;7139;48.114;11.442;2023-03-25T01:30:59;9.60;99.40
14122;DHT22;7139;48.114;11.442;2023-03-25T01:33:26;9.60;99.50
14122;DHT22;7139;48.114;11.442;2023-03-25T01:35:53;9.60;99.30
14122;DHT22;7139;48.114;11.442;2023-03-25T01:38:20;9.60;99.30
14122;DHT22;7139;48.114;11.442;2023-03-25T01:40:49;9.60;99.20
14122;DHT22;7139;48.114;11.442;2023-03-25T01:43:16;9.60;99.30
14122;DHT22;7139;48.114;11.442;2023-03-25T01:45:45;9.60;99.20
14122;DHT22;7139;48.114;11.442;2023-03-25T01:48:14;9.60;99.10
14122;DHT22;7139;48.114;11.442;2023-03-25T01:50:45;9.60;99.00
14122;DHT22;7139;48.114;11.442;2023-03-25T01:53:13;9.60;99.00
14122;DHT22;7139;48.114;11.442;2023-03-25T01:55:42;9.60;98.90
14122;DHT22;7139;48.114;11.442;2023-03-25T01:58:12;9.70;98.80
14122;DHT22;7139;48.114;11.442;2023-03-25T02:00:41;9.60;98.90
14122;DHT22;7139;48.114;11.442;2023-03-25T02:03:11;9.60;98.90
14122;DHT22;7139;48.114;11.442;2023-03-25T02:05:43;9.60;98.90
14122;DHT22;7139;48.114;11.442;2023-03-25T02:08:12;9.60;98.90
14122;DHT22;7139;48.114;11.442;2023-03-25T02:10:41;9.60;98.90
14122;DHT22;7139;48.114;11.442;2023-03-25T02:13:10;9.60;99.10
14122;DHT22;7139;48.114;11.442;2023-03-25T02:15:54;9.60;99.10
14122;DHT22;7139;48.114;11.442;2023-03-25T02:18:33;9.60;99.00
14122;DHT22;7139;48.114;11.442;2023-03-25T02:27:15;9.40;98.90
14122;DHT22;7139;48.114;11.442;2023-03-25T02:33:12;9.30;99.00
14122;DHT22;7139;48.114;11.442;2023-03-25T02:36:18;9.30;98.80
14122;DHT22;7139;48.114;11.442;2023-03-25T02:38:58;9.20;98.70
14122;DHT22;7139;48.114;11.442;2023-03-25T02:41:31;9.20;98.80
14122;DHT22;7139;48.114;11.442;2023-03-25T02:44:04;9.20;98.70
14122;DHT22;7139;48.114;11.442;2023-03-25T02:46:32;9.10;98.40
14122;DHT22;7139;48.114;11.442;2023-03-25T02:49:05;9.20;98.40
14122;DHT22;7139;48.114;11.442;2023-03-25T02:51:37;9.20;98.30
14122;DHT22;7139;48.114;11.442;2023-03-25T02:54:10;9.20;98.30
14122;DHT22;7139;48.114;11.442;2023-03-25T02:56:39;9.10;98.30
14122;DHT22;7139;48.114;11.442;2023-03-25T02:59:09;9.10;98.30
14122;DHT22;7139;48.114;11.442;2023-03-25T03:01:39;9.10;98.40
14122;DHT22;7139;48.114;11.442;2023-03-25T03:04:06;9.10;98.50
14122;DHT22;7139;48.114;11.442;2023-03-25T03:06:37;9.00;98.70
14122;DHT22;7139;48.114;11.442;2023-03-25T03:09:16;9.00;98.70
14122;DHT22;7139;48.114;11.442;2023-03-25T03:11:53;9.00;98.80
14122;DHT22;7139;48.114;11.442;2023-03-25T03:14:32;9.00;98.50
14122;DHT22;7139;48.114;11.442;2023-03-25T03:17:06;8.90;98.70
14122;DHT22;7139;48.114;11.442;2023-03-25T03:19:37;8.90;98.40
14122;DHT22;7139;48.114;11.442;2023-03-25T03:22:15;8.90;98.50
14122;DHT22;7139;48.114;11.442;2023-03-25T03:24:50;8.90;98.50
14122;DHT22;7139;48.114;11.442;2023-03-25T03:27:22;8.80;98.60
14122;DHT22;7139;48.114;11.442;2023-03-25T03:29:56;8.80;98.80
14122;DHT22;7139;48.114;11.442;2023-03-25T03:32:27;8.80;98.90
14122;DHT22;7139;48.114;11.442;2023-03-25T03:35:00;8.70;99.10
14122;DHT22;7139;48.114;11.442;2023-03-25T03:37:32;8.60;99.20
14122;DHT22;7139;48.114;11.442;2023-03-25T03:40:04;8.60;99.50
14122;DHT22;7139;48.114;11.442;2023-03-25T03:42:34;8.60;99.40
14122;DHT22;7139;48.114;11.442;2023-03-25T03:45:05;8.60;99.50
14122;DHT22;7139;48.114;11.442;2023-03-25T03:47:36;8.60;99.50
14122;DHT22;7139;48.114;11.442;2023-03-25T03:50:08;8.50;99.60
14122;DHT22;7139;48.114;11.442;2023-03-25T03:52:39;8.50;99.70
14122;DHT22;7139;48.114;11.442;2023-03-25T03:55:12;8.40;99.70
14122;DHT22;7139;48.114;11.442;2023-03-25T03:57:44;8.40;99.70
14122;DHT22;7139;48.114;11.442;2023-03-25T04:00:15;8.40;99.70
14122;DHT22;7139;48.114;11.442;2023-03-25T04:02:46;8.40;99.50
14122;DHT22;7139;48.114;11.442;2023-03-25T04:05:16;8.40;99.60
14122;DHT22;7139;48.114;11.442;2023-03-25T04:07:46;8.30;99.50
14122;DHT22;7139;48.114;11.442;2023-03-25T04:10:24;8.30;99.50
14122;DHT22;7139;48.114;11.442;2023-03-25T04:12:55;8.20;99.50
14122;DHT22;7139;48.114;11.442;2023-03-25T04:15:22;8.20;99.40
14122;DHT22;7139;48.114;11.442;2023-03-25T04:17:49;8.20;99.50
14122;DHT22;7139;48.114;11.442;2023-03-25T04:20:19;8.20;99.40
14122;DHT22;7139;48.114;11.442;2023-03-25T04:22:48;8.20;99.30
14122;DHT22;7139;48.114;11.442;2023-03-25T04:25:17;8.20;99.10
14122;DHT22;7139;48.114;11.442;2023-03-25T04:27:47;8.20;99.10
14122;DHT22;7139;48.114;11.442;2023-03-25T04:30:15;8.20;98.90
14122;DHT22;7139;48.114;11.442;2023-03-25T04:32:43;8.20;98.90
14122;DHT22;7139;48.114;11.442;2023-03-25T04:35:10;8.20;98.80
14122;DHT22;7139;48.114;11.442;2023-03-25T04:37:37;8.20;98.60
14122;DHT22;7139;48.114;11.442;2023-03-25T04:40:07;8.20;98.80
14122;DHT22;7139;48.114;11.442;2023-03-25T04:42:34;8.20;98.60
14122;DHT22;7139;48.114;11.442;2023-03-25T04:45:03;8.20;98.40
14122;DHT22;7139;48.114;11.442;2023-03-25T04:47:32;8.20;98.40
14122;DHT22;7139;48.114;11.442;2023-03-25T04:49:59;8.20;98.40
14122;DHT22;7139;48.114;11.442;2023-03-25T04:52:26;8.30;98.50
14122;DHT22;7139;48.114;11.442;2023-03-25T04:54:53;8.30;98.40
14122;DHT22;7139;48.114;11.442;2023-03-25T04:57:20;8.30;98.50
14122;DHT22;7139;48.114;11.442;2023-03-25T04:59:46;8.30;98.60
14122;DHT22;7139;48.114;11.442;2023-03-25T05:02:14;8.30;98.60
14122;DHT22;7139;48.114;11.442;2023-03-25T05:04:42;8.30;98.60
14122;DHT22;7139;48.114;11.442;2023-03-25T05:07:11;8.20;98.60
14122;DHT22;7139;48.114;11.442;2023-03-25T05:09:40;8.30;98.70
14122;DHT22;7139;48.114;11.442;2023-03-25T05:12:07;8.30;98.60
14122;DHT22;7139;48.114;11.442;2023-03-25T05:14:36;8.30;98.80
14122;DHT22;7139;48.114;11.442;2023-03-25T05:17:02;8.30;98.60
14122;DHT22;7139;48.114;11.442;2023-03-25T05:19:30;8.20;98.70
14122;DHT22;7139;48.114;11.442;2023-03-25T05:21:59;8.30;98.80
14122;DHT22;7139;48.114;11.442;2023-03-25T05:24:27;8.20;98.60
14122;DHT22;7139;48.114;11.442;2023-03-25T05:26:53;8.30;98.60
14122;DHT22;7139;48.114;11.442;2023-03-25T05:29:20;8.20;98.60
14122;DHT22;7139;48.114;11.442;2023-03-25T05:31:47;8.20;98.60
14122;DHT22;7139;48.114;11.442;2023-03-25T05:34:14;8.30;98.80
14122;DHT22;7139;48.114;11.442;2023-03-25T05:36:42;8.30;98.60
14122;DHT22;7139;48.114;11.442;2023-03-25T05:39:09;8.30;98.50
14122;DHT22;7139;48.114;11.442;2023-03-25T05:41:36;8.30;98.50
14122;DHT22;7139;48.114;11.442;2023-03-25T05:44:04;8.30;98.70
14122;DHT22;7139;48.114;11.442;2023-03-25T05:46:31;8.30;98.90
14122;DHT22;7139;48.114;11.442;2023-03-25T05:49:06;8.30;98.60
14122;DHT22;7139;48.114;11.442;2023-03-25T05:51:33;8.40;98.60
14122;DHT22;7139;48.114;11.442;2023-03-25T05:54:03;8.40;98.20
14122;DHT22;7139;48.114;11.442;2023-03-25T05:56:35;8.40;98.10
14122;DHT22;7139;48.114;11.442;2023-03-25T05:59:02;8.40;98.10
14122;DHT22;7139;48.114;11.442;2023-03-25T06:01:29;8.40;98.30
14122;DHT22;7139;48.114;11.442;2023-03-25T06:03:58;8.40;97.90
14122;DHT22;7139;48.114;11.442;2023-03-25T06:06:25;8.40;97.90
14122;DHT22;7139;48.114;11.442;2023-03-25T06:08:52;8.40;97.50
14122;DHT22;7139;48.114;11.442;2023-03-25T06:11:21;8.40;97.10
14122;DHT22;7139;48.114;11.442;2023-03-25T06:13:48;8.40;96.70
14122;DHT22;7139;48.114;11.442;2023-03-25T06:16:16;8.40;96.70
14122;DHT22;7139;48.114;11.442;2023-03-25T06:18:45;8.40;96.20
14122;DHT22;7139;48.114;11.442;2023-03-25T06:21:15;8.40;96.10
14122;DHT22;7139;48.114;11.442;2023-03-25T06:23:42;8.40;95.90
14122;DHT22;7139;48.114;11.442;2023-03-25T06:26:09;8.40;95.90
14122;DHT22;7139;48.114;11.442;2023-03-25T06:28:37;8.40;95.60
14122;DHT22;7139;48.114;11.442;2023-03-25T06:31:04;8.40;95.10
14122;DHT22;7139;48.114;11.442;2023-03-25T06:33:37;8.40;95.00
14122;DHT22;7139;48.114;11.442;2023-03-25T06:36:05;8.40;95.10
14122;DHT22;7139;48.114;11.442;2023-03-25T06:38:32;8.40;95.10
14122;DHT22;7139;48.114;11.442;2023-03-25T06:40:59;8.30;95.10
14122;DHT22;7139;48.114;11.442;2023-03-25T06:43:26;8.30;95.40
14122;DHT22;7139;48.114;11.442;2023-03-25T06:45:54;8.30;95.80
14122;DHT22;7139;48.114;11.442;2023-03-25T06:48:21;8.30;96.20
14122;DHT22;7139;48.114;11.442;2023-03-25T06:53:52;8.20;96.80
14122;DHT22;7139;48.114;11.442;2023-03-25T06:56:19;8.20;97.10
14122;DHT22;7139;48.114;11.442;2023-03-25T06:58:46;8.10;97.30
14122;DHT22;7139;48.114;11.442;2023-03-25T07:01:14;8.10;97.50
14122;DHT22;7139;48.114;11.442;2023-03-25T07:03:41;8.10;97.60
14122;DHT22;7139;48.114;11.442;2023-03-25T07:06:14;8.10;97.70
14122;DHT22;7139;48.114;11.442;2023-03-25T07:08:41;8.10;97.90
14122;DHT22;7139;48.114;11.442;2023-03-25T07:11:09;8.10;97.80
14122;DHT22;7139;48.114;11.442;2023-03-25T07:13:38;8.00;98.00
14122;DHT22;7139;48.114;11.442;2023-03-25T07:16:06;7.90;98.00
14122;DHT22;7139;48.114;11.442;2023-03-25T07:18:34;7.90;98.00
14122;DHT22;7139;48.114;11.442;2023-03-25T07:21:01;8.00;98.10
14122;DHT22;7139;48.114;11.442;2023-03-25T07:23:29;8.00;98.10
14122;DHT22;7139;48.114;11.442;2023-03-25T07:25:55;8.00;98.30
14122;DHT22;7139;48.114;11.442;2023-03-25T07:28:22;8.00;98.30
14122;DHT22;7139;48.114;11.442;2023-03-25T07:30:49;8.00;98.30
14122;DHT22;7139;48.114;11.442;2023-03-25T07:33:16;8.10;98.30
14122;DHT22;7139;48.114;11.442;2023-03-25T07:35:44;8.10;98.30
14122;DHT22;7139;48.114;11.442;2023-03-25T07:38:10;8.10;98.20
14122;DHT22;7139;48.114;11.442;2023-03-25T07:40:37;8.20;98.20
14122;DHT22;7139;48.114;11.442;2023-03-25T07:43:04;8.10;98.10
14122;DHT22;7139;48.114;11.442;2023-03-25T07:45:31;8.10;98.20
14122;DHT22;7139;48.114;11.442;2023-03-25T07:47:59;8.00;98.20
14122;DHT22;7139;48.114;11.442;2023-03-25T07:50:26;8.00;98.10
14122;DHT22;7139;48.114;11.442;2023-03-25T07:52:54;8.00;98.20
14122;DHT22;7139;48.114;11.442;2023-03-25T07:55:21;8.10;98.30
14122;DHT22;7139;48.114;11.442;2023-03-25T07:57:48;8.10;98.10
14122;DHT22;7139;48.114;11.442;2023-03-25T08:00:14;8.10;98.40
14122;DHT22;7139;48.114;11.442;2023-03-25T08:02:41;8.20;98.30
14122;DHT22;7139;48.114;11.442;2023-03-25T08:05:08;8.20;98.20
14122;DHT22;7139;48.114;11.442;2023-03-25T08:07:36;8.30;98.40
14122;DHT22;7139;48.114;11.442;2023-03-25T08:10:06;8.40;98.20
14122;DHT22;7139;48.114;11.442;2023-03-25T08:12:33;8.50;98.10
14122;DHT22;7139;48.114;11.442;2023-03-25T08:15:02;8.70;98.10
14122;DHT22;7139;48.114;11.442;2023-03-25T08:17:29;8.90;97.90
14122;DHT22;7139;48.114;11.442;2023-03-25T08:19:56;8.90;97.60
14122;DHT22;7139;48.114;11.442;2023-03-25T08:22:23;9.00;97.60
14122;DHT22;7139;48.114;11.442;2023-03-25T08:24:50;9.10;97.70
14122;DHT22;7139;48.114;11.442;2023-03-25T08:27:18;9.40;97.70
14122;DHT22;7139;48.114;11.442;2023-03-25T08:29:45;9.70;97.20
14122;DHT22;7139;48.114;11.442;2023-03-25T08:32:22;9.80;97.00
14122;DHT22;7139;48.114;11.442;2023-03-25T08:34:49;9.70;96.70
14122;DHT22;7139;48.114;11.442;2023-03-25T08:37:16;9.70;96.90
14122;DHT22;7139;48.114;11.442;2023-03-25T08:39:43;9.80;96.80
14122;DHT22;7139;48.114;11.442;2023-03-25T08:42:11;9.60;96.60
14122;DHT22;7139;48.114;11.442;2023-03-25T08:44:39;9.50;96.90
14122;DHT22;7139;48.114;11.442;2023-03-25T08:47:06;9.50;96.80
14122;DHT22;7139;48.114;11.442;2023-03-25T08:49:33;9.50;97.00
14122;DHT22;7139;48.114;11.442;2023-03-25T08:52:00;9.60;97.30
14122;DHT22;7139;48.114;11.442;2023-03-25T08:54:28;9.60;96.80
14122;DHT22;7139;48.114;11.442;2023-03-25T08:56:55;9.50;97.00
14122;DHT22;7139;48.114;11.442;2023-03-25T08:59:22;9.30;97.10
14122;DHT22;7139;48.114;11.442;2023-03-25T09:01:50;9.20;97.10
14122;DHT22;7139;48.114;11.442;2023-03-25T09:04:17;9.10;97.20
14122;DHT22;7139;48.114;11.442;2023-03-25T09:06:44;9.20;97.60
14122;DHT22;7139;48.114;11.442;2023-03-25T09:09:11;9.30;97.60
14122;DHT22;7139;48.114;11.442;2023-03-25T09:11:38;9.30;97.20
14122;DHT22;7139;48.114;11.442;2023-03-25T09:14:04;9.30;96.90
14122;DHT22;7139;48.114;11.442;2023-03-25T09:16:32;9.40;97.10
14122;DHT22;7139;48.114;11.442;2023-03-25T09:19:00;9.40;97.40
14122;DHT22;7139;48.114;11.442;2023-03-25T09:21:27;9.50;96.90
14122;DHT22;7139;48.114;11.442;2023-03-25T09:23:54;9.60;96.50
14122;DHT22;7139;48.114;11.442;2023-03-25T09:26:21;9.70;96.10
14122;DHT22;7139;48.114;11.442;2023-03-25T09:28:47;9.80;96.30
14122;DHT22;7139;48.114;11.442;2023-03-25T09:31:14;9.90;96.40
14122;DHT22;7139;48.114;11.442;2023-03-25T09:33:41;10.10;96.00
14122;DHT22;7139;48.114;11.442;2023-03-25T09:36:09;10.30;95.50
14122;DHT22;7139;48.114;11.442;2023-03-25T09:38:37;10.30;95.30
14122;DHT22;7139;48.114;11.442;2023-03-25T09:41:20;10.20;95.10
14122;DHT22;7139;48.114;11.442;2023-03-25T09:43:55;10.30;95.20
14122;DHT22;7139;48.114;11.442;2023-03-25T09:46:27;10.40;95.20
14122;DHT22;7139;48.114;11.442;2023-03-25T09:48:54;10.60;95.10
14122;DHT22;7139;48.114;11.442;2023-03-25T09:51:27;10.90;94.40
14122;DHT22;7139;48.114;11.442;2023-03-25T09:53:57;11.10;94.50
14122;DHT22;7139;48.114;11.442;2023-03-25T09:56:27;11.20;94.00
14122;DHT22;7139;48.114;11.442;2023-03-25T09:58:59;11.20;93.60
14122;DHT22;7139;48.114;11.442;2023-03-25T10:01:36;11.30;93.20
14122;DHT22;7139;48.114;11.442;2023-03-25T10:04:30;11.50;93.20
14122;DHT22;7139;48.114;11.442;2023-03-25T10:07:08;11.60;92.60
14122;DHT22;7139;48.114;11.442;2023-03-25T10:09:46;11.60;93.10
14122;DHT22;7139;48.114;11.442;2023-03-25T10:12:26;11.40;92.50
14122;DHT22;7139;48.114;11.442;2023-03-25T10:15:02;11.20;92.40
14122;DHT22;7139;48.114;11.442;2023-03-25T10:17:36;11.20;92.10
14122;DHT22;7139;48.114;11.442;2023-03-25T10:20:12;11.20;92.10
14122;DHT22;7139;48.114;11.442;2023-03-25T10:22:54;11.20;92.30
14122;DHT22;7139;48.114;11.442;2023-03-25T10:25:29;11.20;92.20
14122;DHT22;7139;48.114;11.442;2023-03-25T10:27:58;11.20;92.10
14122;DHT22;7139;48.114;11.442;2023-03-25T10:30:30;11.10;92.10
14122;DHT22;7139;48.114;11.442;2023-03-25T10:33:01;11.00;92.40
14122;DHT22;7139;48.114;11.442;2023-03-25T10:35:30;10.90;93.10
14122;DHT22;7139;48.114;11.442;2023-03-25T10:38:02;10.70;94.70
14122;DHT22;7139;48.114;11.442;2023-03-25T10:40:34;10.50;94.90
14122;DHT22;7139;48.114;11.442;2023-03-25T10:43:13;10.40;95.00
14122;DHT22;7139;48.114;11.442;2023-03-25T10:45:42;10.40;94.80
14122;DHT22;7139;48.114;11.442;2023-03-25T10:48:13;10.50;95.00
14122;DHT22;7139;48.114;11.442;2023-03-25T10:50:41;10.60;94.40
14122;DHT22;7139;48.114;11.442;2023-03-25T10:53:19;10.60;93.30
14122;DHT22;7139;48.114;11.442;2023-03-25T10:55:47;10.70;93.60
14122;DHT22;7139;48.114;11.442;2023-03-25T10:58:17;10.70;93.60
14122;DHT22;7139;48.114;11.442;2023-03-25T11:00:44;10.70;92.80
14122;DHT22;7139;48.114;11.442;2023-03-25T11:03:15;10.80;92.50
14122;DHT22;7139;48.114;11.442;2023-03-25T11:05:43;11.00;92.90
14122;DHT22;7139;48.114;11.442;2023-03-25T11:08:14;11.30;92.60
14122;DHT22;7139;48.114;11.442;2023-03-25T11:10:46;11.50;91.80
14122;DHT22;7139;48.114;11.442;2023-03-25T11:13:15;11.50;91.90
14122;DHT22;7139;48.114;11.442;2023-03-25T11:15:46;11.50;92.20
14122;DHT22;7139;48.114;11.442;2023-03-25T11:18:19;11.60;92.50
14122;DHT22;7139;48.114;11.442;2023-03-25T11:20:48;11.50;92.10
14122;DHT22;7139;48.114;11.442;2023-03-25T11:23:21;11.30;92.40
14122;DHT22;7139;48.114;11.442;2023-03-25T11:25:50;11.10;93.10
14122;DHT22;7139;48.114;11.442;2023-03-25T11:28:19;11.10;93.20
14122;DHT22;7139;48.114;11.442;2023-03-25T11:31:13;11.00;93.30
14122;DHT22;7139;48.114;11.442;2023-03-25T11:33:42;11.00;93.40
14122;DHT22;7139;48.114;11.442;2023-03-25T11:36:16;11.00;93.10
14122;DHT22;7139;48.114;11.442;2023-03-25T11:38:52;11.10;92.70
14122;DHT22;7139;48.114;11.442;2023-03-25T11:41:21;11.10;92.80
14122;DHT22;7139;48.114;11.442;2023-03-25T11:43:48;11.20;92.40
14122;DHT22;7139;48.114;11.442;2023-03-25T11:46:17;11.10;92.50
14122;DHT22;7139;48.114;11.442;2023-03-25T11:48:46;11.10;92.90
14122;DHT22;7139;48.114;11.442;2023-03-25T11:51:18;11.10;93.00
14122;DHT22;7139;48.114;11.442;2023-03-25T11:53:49;11.10;92.90
14122;DHT22;7139;48.114;11.442;2023-03-25T11:56:23;11.10;92.50
14122;DHT22;7139;48.114;11.442;2023-03-25T11:58:56;10.80;92.40
14122;DHT22;7139;48.114;11.442;2023-03-25T12:01:25;10.90;93.20
14122;DHT22;7139;48.114;11.442;2023-03-25T12:04:06;11.30;93.30
14122;DHT22;7139;48.114;11.442;2023-03-25T12:06:33;11.80;92.20
14122;DHT22;7139;48.114;11.442;2023-03-25T12:09:08;11.80;92.00
14122;DHT22;7139;48.114;11.442;2023-03-25T12:11:40;11.80;91.70
14122;DHT22;7139;48.114;11.442;2023-03-25T12:14:26;11.60;91.80
14122;DHT22;7139;48.114;11.442;2023-03-25T12:17:03;11.60;92.10
14122;DHT22;7139;48.114;11.442;2023-03-25T12:19:37;11.50;92.30
14122;DHT22;7139;48.114;11.442;2023-03-25T12:22:15;11.30;92.30
14122;DHT22;7139;48.114;11.442;2023-03-25T12:25:03;11.20;92.50
14122;DHT22;7139;48.114;11.442;2023-03-25T12:27:38;11.10;92.60
14122;DHT22;7139;48.114;11.442;2023-03-25T12:30:16;11.00;92.90
14122;DHT22;7139;48.114;11.442;2023-03-25T12:32:51;10.90;93.20
14122;DHT22;7139;48.114;11.442;2023-03-25T12:35:32;10.90;93.20
14122;DHT22;7139;48.114;11.442;2023-03-25T12:38:20;10.80;93.10
14122;DHT22;7139;48.114;11.442;2023-03-25T12:41:03;10.70;93.40
14122;DHT22;7139;48.114;11.442;2023-03-25T12:43:42;10.60;93.80
14122;DHT22;7139;48.114;11.442;2023-03-25T12:46:23;10.60;94.20
14122;DHT22;7139;48.114;11.442;2023-03-25T12:49:03;10.80;93.90
14122;DHT22;7139;48.114;11.442;2023-03-25T12:51:43;10.90;93.50
14122;DHT22;7139;48.114;11.442;2023-03-25T12:54:27;10.80;93.40
14122;DHT22;7139;48.114;11.442;2023-03-25T12:57:08;10.80;93.00
14122;DHT22;7139;48.114;11.442;2023-03-25T12:59:46;10.80;93.10
14122;DHT22;7139;48.114;11.442;2023-03-25T13:02:38;11.10;93.20
14122;DHT22;7139;48.114;11.442;2023-03-25T13:05:15;11.20;92.40
14122;DHT22;7139;48.114;11.442;2023-03-25T13:07:45;11.10;92.40
14122;DHT22;7139;48.114;11.442;2023-03-25T13:10:16;11.10;92.50
14122;DHT22;7139;48.114;11.442;2023-03-25T13:12:48;11.20;92.90
14122;DHT22;7139;48.114;11.442;2023-03-25T13:15:19;11.40;93.00
14122;DHT22;7139;48.114;11.442;2023-03-25T13:17:50;11.60;92.40
14122;DHT22;7139;48.114;11.442;2023-03-25T13:20:19;11.50;92.40
14122;DHT22;7139;48.114;11.442;2023-03-25T13:22:51;11.60;92.40
14122;DHT22;7139;48.114;11.442;2023-03-25T13:25:21;11.80;92.30
14122;DHT22;7139;48.114;11.442;2023-03-25T13:27:52;11.90;92.70
14122;DHT22;7139;48.114;11.442;2023-03-25T13:30:26;11.80;92.30
14122;DHT22;7139;48.114;11.442;2023-03-25T13:32:56;11.60;93.00
14122;DHT22;7139;48.114;11.442;2023-03-25T13:35:32;11.50;93.20
14122;DHT22;7139;48.114;11.442;2023-03-25T13:38:08;11.40;93.20
14122;DHT22;7139;48.114;11.442;2023-03-25T13:40:42;11.10;93.50
14122;DHT22;7139;48.114;11.442;2023-03-25T13:43:18;11.30;93.90
14122;DHT22;7139;48.114;11.442;2023-03-25T13:45:50;11.40;93.60
14122;DHT22;7139;48.114;11.442;2023-03-25T13:48:22;11.30;93.30
14122;DHT22;7139;48.114;11.442;2023-03-25T13:50:53;11.30;93.50
14122;DHT22;7139;48.114;11.442;2023-03-25T13:53:26;11.30;93.50
14122;DHT22;7139;48.114;11.442;2023-03-25T13:56:01;11.30;93.70
14122;DHT22;7139;48.114;11.442;2023-03-25T13:58:48;11.40;93.50
14122;DHT22;7139;48.114;11.442;2023-03-25T14:04:30;11.30;93.10
14122;DHT22;7139;48.114;11.442;2023-03-25T14:07:15;11.50;92.70
14122;DHT22;7139;48.114;11.442;2023-03-25T14:10:11;11.40;92.40
14122;DHT22;7139;48.114;11.442;2023-03-25T14:12:45;11.20;92.40
14122;DHT22;7139;48.114;11.442;2023-03-25T14:15:16;11.30;92.70
14122;DHT22;7139;48.114;11.442;2023-03-25T14:17:45;11.40;92.70
14122;DHT22;7139;48.114;11.442;2023-03-25T14:20:20;11.40;92.50
14122;DHT22;7139;48.114;11.442;2023-03-25T14:22:54;11.30;92.30
14122;DHT22;7139;48.114;11.442;2023-03-25T14:25:27;11.50;92.80
14122;DHT22;7139;48.114;11.442;2023-03-25T14:27:55;11.70;92.90
14122;DHT22;7139;48.114;11.442;2023-03-25T14:30:25;11.80;91.90
14122;DHT22;7139;48.114;11.442;2023-03-25T14:32:54;11.70;91.80
14122;DHT22;7139;48.114;11.442;2023-03-25T14:35:47;11.80;91.60
14122;DHT22;7139;48.114;11.442;2023-03-25T14:38:51;11.60;91.60
14122;DHT22;7139;48.114;11.442;2023-03-25T14:41:55;11.70;92.20
14122;DHT22;7139;48.114;11.442;2023-03-25T14:44:22;12.00;92.10
14122;DHT22;7139;48.114;11.442;2023-03-25T14:47:00;12.10;91.70
14122;DHT22;7139;48.114;11.442;2023-03-25T14:49:51;12.10;91.30
14122;DHT22;7139;48.114;11.442;2023-03-25T14:52:27;12.10;91.10
14122;DHT22;7139;48.114;11.442;2023-03-25T14:54:55;12.10;90.90
14122;DHT22;7139;48.114;11.442;2023-03-25T14:57:25;12.10;90.90
14122;DHT22;7139;48.114;11.442;2023-03-25T14:59:54;12.40;94.30
14122;DHT22;7139;48.114;11.442;2023-03-25T15:02:26;12.90;93.20
14122;DHT22;7139;48.114;11.442;2023-03-25T15:04:56;13.20;91.90
14122;DHT22;7139;48.114;11.442;2023-03-25T15:07:42;13.20;89.40
14122;DHT22;7139;48.114;11.442;2023-03-25T15:10:21;12.90;90.00
14122;DHT22;7139;48.114;11.442;2023-03-25T15:12:50;12.80;90.30
14122;DHT22;7139;48.114;11.442;2023-03-25T15:15:30;12.90;90.20
14122;DHT22;7139;48.114;11.442;2023-03-25T15:17:59;12.80;88.00
14122;DHT22;7139;48.114;11.442;2023-03-25T15:20:28;12.40;89.80
14122;DHT22;7139;48.114;11.442;2023-03-25T15:26:05;11.90;90.70
14122;DHT22;7139;48.114;11.442;2023-03-25T15:28:49;11.90;91.10
14122;DHT22;7139;48.114;11.442;2023-03-25T15:31:26;11.70;91.50
14122;DHT22;7139;48.114;11.442;2023-03-25T15:34:14;11.60;91.70
14122;DHT22;7139;48.114;11.442;2023-03-25T15:40:02;11.60;92.20
14122;DHT22;7139;48.114;11.442;2023-03-25T15:42:45;11.60;92.10
14122;DHT22;7139;48.114;11.442;2023-03-25T15:45:29;11.90;92.20
14122;DHT22;7139;48.114;11.442;2023-03-25T15:48:18;12.00;91.80
14122;DHT22;7139;48.114;11.442;2023-03-25T15:51:04;11.90;91.50
14122;DHT22;7139;48.114;11.442;2023-03-25T15:53:49;12.00;91.10
14122;DHT22;7139;48.114;11.442;2023-03-25T15:56:20;12.00;91.00
14122;DHT22;7139;48.114;11.442;2023-03-25T15:58:54;12.00;91.00
14122;DHT22;7139;48.114;11.442;2023-03-25T16:01:26;12.00;91.30
14122;DHT22;7139;48.114;11.442;2023-03-25T16:03:58;12.10;91.00
14122;DHT22;7139;48.114;11.442;2023-03-25T16:06:28;12.20;91.10
14122;DHT22;7139;48.114;11.442;2023-03-25T16:08:57;12.30;90.90
14122;DHT22;7139;48.114;11.442;2023-03-25T16:11:26;12.20;91.10
14122;DHT22;7139;48.114;11.442;2023-03-25T16:14:04;12.20;91.10
14122;DHT22;7139;48.114;11.442;2023-03-25T16:16:33;12.20;91.20
14122;DHT22;7139;48.114;11.442;2023-03-25T16:19:03;12.20;91.20
14122;DHT22;7139;48.114;11.442;2023-03-25T16:21:32;12.00;91.20
14122;DHT22;7139;48.114;11.442;2023-03-25T16:24:02;12.00;91.40
14122;DHT22;7139;48.114;11.442;2023-03-25T16:26:34;11.90;91.30
14122;DHT22;7139;48.114;11.442;2023-03-25T16:29:07;11.80;91.60